Time;durP1;ratioP1;P1;durP2;ratioP2;P2;SDS_P1;SDS_P2;PMS_P1;PMS_P2;Temp;Humidity;BMP_temperature;BMP_pressure;BME280_temperature;BME280_humidity;BME280_pressure;Samples;Min_cycle;Max_cycle;Signal;HPM_P1;HPM_P2
2021/05/12 00:00:56;;;;;;;1.05;0.77;;;;;;;;;;5046984;28;20033;-71
2021/05/12 00:03:22;;;;;;;1.20;0.50;;;;;;;;;;5045016;28;20032;-71
2021/05/12 00:05:48;;;;;;;2.78;0.80;;;;;;;;;;5047672;28;20029;-71
2021/05/12 00:08:14;;;;;;;2.50;0.55;;;;;;;;;;5047428;28;20467;-71
2021/05/12 00:10:40;;;;;;;0.60;0.60;;;;;;;;;;5047198;28;20060;-71
2021/05/12 00:13:06;;;;;;;1.15;0.90;;;;;;;;;;5046312;28;20040;-71
2021/05/12 00:15:32;;;;;;;0.50;0.32;;;;;;;;;;5047546;28;20025;-71
2021/05/12 00:17:58;;;;;;;0.75;0.57;;;;;;;;;;5047794;28;20036;-71
2021/05/12 00:20:27;;;;;;;1.00;0.60;;;;;;;;;;5046385;28;20407;-71
2021/05/12 00:23:04;;;;;;;1.00;0.60;;;;;;;;;;5046151;28;20506;-71
2021/05/12 00:25:30;;;;;;;0.57;0.35;;;;;;;;;;5046917;28;20104;-71
2021/05/12 00:27:57;;;;;;;0.68;0.50;;;;;;;;;;5047615;28;20033;-70
2021/05/12 00:30:23;;;;;;;0.40;0.40;;;;;;;;;;5046549;28;20107;-71
2021/05/12 00:32:49;;;;;;;1.02;0.63;;;;;;;;;;5045683;28;20078;-71
2021/05/12 00:35:16;;;;;;;1.30;0.75;;;;;;;;;;5046196;28;20522;-71
2021/05/12 00:37:42;;;;;;;0.50;0.40;;;;;;;;;;5047443;28;20507;-71
2021/05/12 00:40:09;;;;;;;0.95;0.60;;;;;;;;;;5046980;28;20464;-71
2021/05/12 00:42:36;;;;;;;0.65;0.57;;;;;;;;;;5049471;28;20388;-71
2021/05/12 00:45:02;;;;;;;0.55;0.50;;;;;;;;;;5051561;28;20037;-71
2021/05/12 00:47:30;;;;;;;0.70;0.50;;;;;;;;;;5050649;28;20036;-71
2021/05/12 00:49:56;;;;;;;0.50;0.40;;;;;;;;;;5053055;28;20037;-71
2021/05/12 00:52:23;;;;;;;0.73;0.52;;;;;;;;;;5069334;28;20108;-71
2021/05/12 00:54:49;;;;;;;0.82;0.40;;;;;;;;;;5070525;28;20056;-71
2021/05/12 00:57:15;;;;;;;0.50;0.50;;;;;;;;;;5070057;28;20387;-71
2021/05/12 00:59:43;;;;;;;0.57;0.57;;;;;;;;;;5070405;28;20040;-71
2021/05/12 01:02:10;;;;;;;1.35;0.55;;;;;;;;;;5068786;28;20053;-71
2021/05/12 01:04:37;;;;;;;0.45;0.40;;;;;;;;;;5069117;28;20123;-71
2021/05/12 01:07:03;;;;;;;0.35;0.30;;;;;;;;;;5070740;28;20409;-70
2021/05/12 01:09:29;;;;;;;0.93;0.73;;;;;;;;;;5070358;28;20020;-71
2021/05/12 01:11:56;;;;;;;1.25;0.88;;;;;;;;;;5069360;28;20029;-71
2021/05/12 01:14:22;;;;;;;0.43;0.35;;;;;;;;;;5070205;28;20031;-71
2021/05/12 01:16:48;;;;;;;0.75;0.68;;;;;;;;;;5070364;28;20060;-71
2021/05/12 01:19:15;;;;;;;0.70;0.70;;;;;;;;;;5069448;28;20028;-71
2021/05/12 01:21:41;;;;;;;0.90;0.70;;;;;;;;;;5069858;28;20110;-69
2021/05/12 01:24:08;;;;;;;1.80;0.38;;;;;;;;;;5069691;28;20103;-69
2021/05/12 01:26:34;;;;;;;0.68;0.60;;;;;;;;;;5070207;28;20430;-69
2021/05/12 01:29:02;;;;;;;1.02;0.35;;;;;;;;;;5070471;28;20033;-69
2021/05/12 01:31:30;;;;;;;0.50;0.50;;;;;;;;;;5068479;28;20040;-69
2021/05/12 01:33:57;;;;;;;0.85;0.50;;;;;;;;;;5068216;28;20033;-69
2021/05/12 01:36:23;;;;;;;0.70;0.40;;;;;;;;;;5069539;28;20049;-69
2021/05/12 01:38:50;;;;;;;0.32;0.32;;;;;;;;;;5069925;28;20047;-69
2021/05/12 01:41:19;;;;;;;0.80;0.50;;;;;;;;;;5069047;28;20024;-69
2021/05/12 01:43:45;;;;;;;0.57;0.57;;;;;;;;;;5069551;28;20028;-69
2021/05/12 01:46:12;;;;;;;0.68;0.55;;;;;;;;;;5069653;28;20483;-69
2021/05/12 01:48:38;;;;;;;0.98;0.77;;;;;;;;;;5069876;28;20048;-69
2021/05/12 01:51:05;;;;;;;1.85;0.93;;;;;;;;;;5056311;28;20045;-69
2021/05/12 01:53:31;;;;;;;0.82;0.82;;;;;;;;;;5030590;28;20513;-69
2021/05/12 01:55:58;;;;;;;0.47;0.47;;;;;;;;;;5049586;28;20333;-69
2021/05/12 01:58:24;;;;;;;0.50;0.45;;;;;;;;;;5049111;28;20496;-69
2021/05/12 02:00:52;;;;;;;0.70;0.60;;;;;;;;;;5048908;28;20129;-69
2021/05/12 02:03:18;;;;;;;0.40;0.40;;;;;;;;;;5047082;28;20266;-69
2021/05/12 02:05:45;;;;;;;0.90;0.70;;;;;;;;;;5048918;28;20492;-69
2021/05/12 02:08:12;;;;;;;0.63;0.63;;;;;;;;;;5048970;28;20036;-69
2021/05/12 02:10:38;;;;;;;0.35;0.35;;;;;;;;;;5049245;28;20116;-69
2021/05/12 02:13:04;;;;;;;0.63;0.43;;;;;;;;;;5047887;28;20112;-69
2021/05/12 02:15:31;;;;;;;1.35;0.73;;;;;;;;;;5048942;28;20033;-69
2021/05/12 02:17:57;;;;;;;0.45;0.45;;;;;;;;;;5049716;28;20033;-69
2021/05/12 02:20:25;;;;;;;1.58;1.02;;;;;;;;;;5048316;28;20031;-69
2021/05/12 02:22:51;;;;;;;0.75;0.40;;;;;;;;;;5048287;28;20059;-69
2021/05/12 02:25:17;;;;;;;2.00;0.85;;;;;;;;;;5048311;28;20029;-69
2021/05/12 02:27:43;;;;;;;1.17;0.95;;;;;;;;;;5049283;28;20025;-69
2021/05/12 02:30:11;;;;;;;0.28;0.20;;;;;;;;;;5048125;28;20029;-69
2021/05/12 02:32:37;;;;;;;0.50;0.32;;;;;;;;;;5047276;28;20480;-69
2021/05/12 02:35:04;;;;;;;2.05;0.85;;;;;;;;;;5048227;28;20025;-69
2021/05/12 02:37:30;;;;;;;0.85;0.25;;;;;;;;;;5048149;28;20416;-69
2021/05/12 02:39:57;;;;;;;1.60;1.20;;;;;;;;;;5048720;28;20032;-69
2021/05/12 02:42:23;;;;;;;0.95;0.57;;;;;;;;;;5047353;28;20021;-69
2021/05/12 02:44:49;;;;;;;0.88;0.82;;;;;;;;;;5049003;28;20029;-69
2021/05/12 02:47:15;;;;;;;0.98;0.63;;;;;;;;;;5048278;28;20064;-69
2021/05/12 02:49:41;;;;;;;0.40;0.30;;;;;;;;;;5049089;28;20122;-69
2021/05/12 02:52:08;;;;;;;0.40;0.40;;;;;;;;;;5066941;28;20062;-69
2021/05/12 02:54:34;;;;;;;0.40;0.40;;;;;;;;;;5068293;28;20017;-69
2021/05/12 02:57:01;;;;;;;0.70;0.55;;;;;;;;;;5068292;28;20480;-69
2021/05/12 02:59:27;;;;;;;1.02;0.77;;;;;;;;;;5067882;28;20564;-69
2021/05/12 03:01:53;;;;;;;0.90;0.73;;;;;;;;;;5066890;28;20073;-69
2021/05/12 03:04:19;;;;;;;0.88;0.80;;;;;;;;;;5064829;28;20132;-69
2021/05/12 03:06:45;;;;;;;1.73;0.40;;;;;;;;;;5050426;28;20025;-69
2021/05/12 03:09:11;;;;;;;1.25;0.55;;;;;;;;;;5047400;28;20028;-69
2021/05/12 03:11:38;;;;;;;0.55;0.50;;;;;;;;;;5047340;28;20036;-69
2021/05/12 03:14:05;;;;;;;0.68;0.68;;;;;;;;;;5047585;28;20040;-69
2021/05/12 03:16:31;;;;;;;3.30;0.52;;;;;;;;;;5047970;28;20021;-69
2021/05/12 03:18:57;;;;;;;0.35;0.32;;;;;;;;;;5048097;28;20387;-69
2021/05/12 03:21:24;;;;;;;0.68;0.68;;;;;;;;;;5046777;28;20399;-69
2021/05/12 03:23:50;;;;;;;0.38;0.38;;;;;;;;;;5047187;28;20746;-69
2021/05/12 03:26:21;;;;;;;0.93;0.68;;;;;;;;;;5047158;28;20126;-69
2021/05/12 03:28:47;;;;;;;0.30;0.30;;;;;;;;;;5048398;28;20112;-69
2021/05/12 03:31:13;;;;;;;0.30;0.30;;;;;;;;;;5046543;28;20041;-69
2021/05/12 03:33:40;;;;;;;0.73;0.43;;;;;;;;;;5046217;28;20029;-69
2021/05/12 03:36:06;;;;;;;0.43;0.40;;;;;;;;;;5047835;28;20029;-69
2021/05/12 03:38:33;;;;;;;1.63;0.50;;;;;;;;;;5047496;28;20108;-69
2021/05/12 03:40:59;;;;;;;0.60;0.50;;;;;;;;;;5047224;28;20037;-69
2021/05/12 03:43:25;;;;;;;0.50;0.50;;;;;;;;;;5046493;28;20063;-69
2021/05/12 03:45:51;;;;;;;1.67;0.73;;;;;;;;;;5048320;28;20071;-69
2021/05/12 03:48:17;;;;;;;0.20;0.20;;;;;;;;;;5047336;28;20064;-69
2021/05/12 03:50:43;;;;;;;0.93;0.85;;;;;;;;;;5047100;28;20140;-70
2021/05/12 03:53:10;;;;;;;0.65;0.45;;;;;;;;;;5046038;28;20032;-70
2021/05/12 03:55:37;;;;;;;0.50;0.30;;;;;;;;;;5047675;28;20444;-71
2021/05/12 03:58:03;;;;;;;1.70;0.82;;;;;;;;;;5047517;28;20483;-71
2021/05/12 04:00:29;;;;;;;0.47;0.30;;;;;;;;;;5046915;28;20053;-71
2021/05/12 04:02:55;;;;;;;0.63;0.38;;;;;;;;;;5045604;28;20064;-71
2021/05/12 04:05:21;;;;;;;0.57;0.50;;;;;;;;;;5046266;28;20115;-71
2021/05/12 04:07:49;;;;;;;1.20;0.47;;;;;;;;;;5047750;28;20086;-71
2021/05/12 04:10:15;;;;;;;0.40;0.40;;;;;;;;;;5046342;28;20029;-70
2021/05/12 04:12:41;;;;;;;2.20;0.63;;;;;;;;;;5046671;28;20033;-71
2021/05/12 04:15:08;;;;;;;0.30;0.30;;;;;;;;;;5047834;28;20021;-71
2021/05/12 04:17:34;;;;;;;0.65;0.65;;;;;;;;;;5051612;28;20021;-70
2021/05/12 04:20:00;;;;;;;0.25;0.25;;;;;;;;;;5051530;28;20047;-71
2021/05/12 04:22:26;;;;;;;0.28;0.28;;;;;;;;;;5049534;28;20509;-71
2021/05/12 04:24:52;;;;;;;1.60;0.40;;;;;;;;;;5051032;28;20029;-71
2021/05/12 04:27:19;;;;;;;0.32;0.32;;;;;;;;;;5050685;28;20021;-71
2021/05/12 04:29:46;;;;;;;0.50;0.50;;;;;;;;;;5051048;28;20025;-70
2021/05/12 04:32:12;;;;;;;1.58;0.65;;;;;;;;;;5049481;28;20043;-71
2021/05/12 04:34:38;;;;;;;3.13;1.02;;;;;;;;;;5049859;28;20040;-71
2021/05/12 04:37:04;;;;;;;0.80;0.50;;;;;;;;;;5051127;28;20033;-71
2021/05/12 04:39:30;;;;;;;0.70;0.40;;;;;;;;;;5032622;28;20064;-71
2021/05/12 04:41:57;;;;;;;0.38;0.38;;;;;;;;;;5049733;28;20024;-71
2021/05/12 04:44:23;;;;;;;0.35;0.35;;;;;;;;;;5050468;28;20052;-71
2021/05/12 04:46:50;;;;;;;1.10;0.68;;;;;;;;;;5051239;28;20052;-71
2021/05/12 04:49:16;;;;;;;0.30;0.30;;;;;;;;;;5050542;28;20473;-71
2021/05/12 04:51:42;;;;;;;0.45;0.43;;;;;;;;;;5067198;28;20075;-71
2021/05/12 04:54:10;;;;;;;2.30;0.60;;;;;;;;;;5070045;28;20036;-70
2021/05/12 04:56:36;;;;;;;0.70;0.70;;;;;;;;;;5070474;28;20031;-70
2021/05/12 04:59:03;;;;;;;0.60;0.60;;;;;;;;;;5070424;28;20117;-70
2021/05/12 05:01:30;;;;;;;0.68;0.68;;;;;;;;;;5069257;28;20025;-70
2021/05/12 05:03:58;;;;;;;0.35;0.30;;;;;;;;;;5069171;28;20024;-71
2021/05/12 05:06:24;;;;;;;0.43;0.35;;;;;;;;;;5070042;28;20033;-71
2021/05/12 05:08:50;;;;;;;1.45;1.08;;;;;;;;;;5070675;28;20025;-70
2021/05/12 05:11:16;;;;;;;0.60;0.45;;;;;;;;;;5068786;28;20036;-71
2021/05/12 05:13:42;;;;;;;1.10;0.52;;;;;;;;;;5069656;28;20020;-71
2021/05/12 05:16:11;;;;;;;1.58;0.40;;;;;;;;;;5070113;28;20024;-71
2021/05/12 05:18:38;;;;;;;0.50;0.38;;;;;;;;;;5070273;28;20035;-70
2021/05/12 05:21:05;;;;;;;0.60;0.60;;;;;;;;;;5069959;28;20021;-71
2021/05/12 05:23:33;;;;;;;0.40;0.40;;;;;;;;;;5069721;28;20035;-71
2021/05/12 05:25:59;;;;;;;0.57;0.50;;;;;;;;;;5069383;28;20032;-70
2021/05/12 05:28:25;;;;;;;0.30;0.30;;;;;;;;;;5069044;28;20029;-70
2021/05/12 05:30:52;;;;;;;2.13;0.60;;;;;;;;;;5068951;28;20131;-71
2021/05/12 05:33:18;;;;;;;0.35;0.32;;;;;;;;;;5067246;28;20510;-71
2021/05/12 05:35:44;;;;;;;0.50;0.50;;;;;;;;;;5070099;28;20044;-71
2021/05/12 05:38:10;;;;;;;0.60;0.40;;;;;;;;;;5069374;28;20025;-70
2021/05/12 05:40:36;;;;;;;0.47;0.47;;;;;;;;;;5069845;28;20151;-71
2021/05/12 05:43:03;;;;;;;0.38;0.30;;;;;;;;;;5068804;28;20031;-70
2021/05/12 05:45:30;;;;;;;0.68;0.68;;;;;;;;;;5069748;28;20029;-71
2021/05/12 05:47:56;;;;;;;2.28;0.30;;;;;;;;;;5070000;28;20410;-71
2021/05/12 05:50:22;;;;;;;0.95;0.43;;;;;;;;;;5060357;28;20032;-71
2021/05/12 05:52:49;;;;;;;0.73;0.43;;;;;;;;;;5047192;28;20086;-71
2021/05/12 05:55:15;;;;;;;0.73;0.70;;;;;;;;;;5068746;28;20029;-70
2021/05/12 05:57:41;;;;;;;0.60;0.35;;;;;;;;;;5055309;28;20029;-71
2021/05/12 06:00:08;;;;;;;0.38;0.32;;;;;;;;;;5050825;28;20190;-71
2021/05/12 06:02:37;;;;;;;1.42;0.80;;;;;;;;;;5056440;28;20064;-71
2021/05/12 06:05:04;;;;;;;1.02;0.50;;;;;;;;;;5061255;28;20119;-71
2021/05/12 06:07:30;;;;;;;1.10;1.10;;;;;;;;;;5074400;28;20252;-71
2021/05/12 06:09:56;;;;;;;0.93;0.60;;;;;;;;;;5065288;28;20033;-71
2021/05/12 06:12:23;;;;;;;1.70;0.93;;;;;;;;;;5065175;28;20089;-71
2021/05/12 06:14:49;;;;;;;0.77;0.63;;;;;;;;;;5069515;28;20111;-71
2021/05/12 06:17:15;;;;;;;1.00;0.70;;;;;;;;;;5051852;28;20435;-71
2021/05/12 06:19:41;;;;;;;3.03;1.10;;;;;;;;;;5070423;28;20028;-71
2021/05/12 06:22:07;;;;;;;4.70;1.20;;;;;;;;;;5065571;28;20100;-71
2021/05/12 06:24:33;;;;;;;2.95;1.42;;;;;;;;;;5051554;28;20021;-72
2021/05/12 06:27:01;;;;;;;2.28;1.02;;;;;;;;;;5050513;28;20025;-73
2021/05/12 06:29:28;;;;;;;2.05;1.20;;;;;;;;;;5049923;28;20028;-71
2021/05/12 06:31:54;;;;;;;1.63;1.15;;;;;;;;;;5032555;28;20475;-72
2021/05/12 06:34:20;;;;;;;3.28;1.25;;;;;;;;;;5043932;28;20063;-72
2021/05/12 06:36:46;;;;;;;1.70;0.93;;;;;;;;;;5070327;28;20062;-72
2021/05/12 06:39:12;;;;;;;3.53;0.90;;;;;;;;;;5068688;28;20046;-71
2021/05/12 06:41:38;;;;;;;0.98;0.98;;;;;;;;;;5068260;28;20506;-71
2021/05/12 06:44:05;;;;;;;4.45;1.00;;;;;;;;;;5061905;28;20028;-70
2021/05/12 06:46:32;;;;;;;3.42;1.10;;;;;;;;;;5049456;28;20044;-71
2021/05/12 06:48:58;;;;;;;1.83;1.30;;;;;;;;;;5059454;28;20044;-71
2021/05/12 06:51:24;;;;;;;2.40;1.02;;;;;;;;;;5068896;28;20528;-70
2021/05/12 06:53:50;;;;;;;2.17;1.08;;;;;;;;;;5070499;28;20035;-70
2021/05/12 06:56:16;;;;;;;3.15;1.25;;;;;;;;;;5067043;28;20174;-71
2021/05/12 06:58:42;;;;;;;0.95;0.75;;;;;;;;;;5068890;28;20368;-71
2021/05/12 07:01:14;;;;;;;0.80;0.80;;;;;;;;;;5068315;28;20027;-72
2021/05/12 07:03:40;;;;;;;1.67;0.82;;;;;;;;;;5046268;28;20060;-70
2021/05/12 07:06:06;;;;;;;1.77;1.65;;;;;;;;;;5066944;28;20032;-71
2021/05/12 07:08:34;;;;;;;4.90;1.67;;;;;;;;;;5065160;28;20772;-71
2021/05/12 07:11:00;;;;;;;1.73;0.98;;;;;;;;;;5069324;28;20044;-71
2021/05/12 07:13:26;;;;;;;1.52;1.35;;;;;;;;;;5067820;28;20478;-71
2021/05/12 07:15:52;;;;;;;4.55;1.23;;;;;;;;;;5069949;28;20027;-71
2021/05/12 07:18:18;;;;;;;2.38;1.30;;;;;;;;;;5068234;28;20341;-71
2021/05/12 07:20:45;;;;;;;1.73;0.80;;;;;;;;;;5070001;28;20107;-71
2021/05/12 07:23:20;;;;;;;0.88;0.85;;;;;;;;;;5068883;28;20024;-71
2021/05/12 07:25:48;;;;;;;2.50;1.48;;;;;;;;;;5069668;28;20052;-71
2021/05/12 07:28:14;;;;;;;1.30;0.80;;;;;;;;;;5068276;28;20521;-71
2021/05/12 07:30:41;;;;;;;1.52;1.30;;;;;;;;;;5076757;28;20036;-71
2021/05/12 07:33:07;;;;;;;3.35;1.95;;;;;;;;;;5089233;28;20016;-71
2021/05/12 07:35:33;;;;;;;1.10;0.93;;;;;;;;;;5075748;28;20094;-71
2021/05/12 07:37:59;;;;;;;1.00;0.70;;;;;;;;;;5068790;28;20541;-71
2021/05/12 07:40:30;;;;;;;2.20;1.40;;;;;;;;;;5067630;28;20028;-71
2021/05/12 07:42:58;;;;;;;1.42;1.00;;;;;;;;;;5069577;28;20081;-71
2021/05/12 07:45:25;;;;;;;4.20;1.45;;;;;;;;;;5068224;28;21176;-71
2021/05/12 07:47:51;;;;;;;2.88;1.15;;;;;;;;;;5068618;28;20045;-71
2021/05/12 07:50:17;;;;;;;5.28;1.00;;;;;;;;;;5067769;28;20028;-71
2021/05/12 07:52:43;;;;;;;2.47;1.05;;;;;;;;;;5069525;28;20025;-71
2021/05/12 07:55:09;;;;;;;3.08;1.48;;;;;;;;;;5068601;28;20119;-71
2021/05/12 07:57:35;;;;;;;2.58;0.75;;;;;;;;;;5079824;28;20089;-71
2021/05/12 08:00:03;;;;;;;3.40;1.77;;;;;;;;;;5070518;28;20075;-71
2021/05/12 08:02:29;;;;;;;1.42;0.80;;;;;;;;;;5066924;28;20024;-71
2021/05/12 08:04:55;;;;;;;2.70;1.15;;;;;;;;;;5069177;28;20036;-71
2021/05/12 08:07:23;;;;;;;1.90;1.30;;;;;;;;;;5067848;28;20025;-71
2021/05/12 08:09:49;;;;;;;2.72;2.17;;;;;;;;;;5068867;28;20468;-72
2021/05/12 08:12:15;;;;;;;4.07;1.42;;;;;;;;;;5066993;28;20040;-71
2021/05/12 08:14:42;;;;;;;3.97;1.00;;;;;;;;;;5068792;28;20029;-71
2021/05/12 08:17:08;;;;;;;2.55;0.75;;;;;;;;;;5067974;28;20530;-71
2021/05/12 08:19:34;;;;;;;2.63;1.05;;;;;;;;;;5068870;28;20025;-71
2021/05/12 08:22:04;;;;;;;4.75;1.17;;;;;;;;;;5067325;28;20441;-71
2021/05/12 08:24:30;;;;;;;4.10;0.82;;;;;;;;;;5067902;28;20041;-71
2021/05/12 08:26:57;;;;;;;1.85;0.88;;;;;;;;;;5079805;28;20534;-71
2021/05/12 08:29:23;;;;;;;1.05;0.98;;;;;;;;;;5066699;28;20021;-71
2021/05/12 08:31:49;;;;;;;3.22;1.17;;;;;;;;;;5068928;28;20032;-71
2021/05/12 08:34:16;;;;;;;1.38;0.98;;;;;;;;;;5068052;28;20035;-70
2021/05/12 08:36:42;;;;;;;5.78;0.90;;;;;;;;;;5068993;28;20357;-71
2021/05/12 08:39:09;;;;;;;1.65;1.10;;;;;;;;;;5068527;28;20056;-71
2021/05/12 08:41:36;;;;;;;2.85;1.33;;;;;;;;;;5068853;28;20032;-71
2021/05/12 08:44:05;;;;;;;1.10;1.00;;;;;;;;;;5068965;28;20029;-71
2021/05/12 08:46:32;;;;;;;3.10;1.30;;;;;;;;;;5085696;28;20101;-71
2021/05/12 08:48:59;;;;;;;4.63;1.25;;;;;;;;;;5088648;28;20054;-71
2021/05/12 08:51:26;;;;;;;3.92;1.55;;;;;;;;;;5088013;28;20400;-71
2021/05/12 08:53:54;;;;;;;1.90;1.00;;;;;;;;;;5089500;28;20024;-71
2021/05/12 08:56:21;;;;;;;1.85;0.98;;;;;;;;;;5087907;28;20036;-71
2021/05/12 08:58:48;;;;;;;4.20;1.42;;;;;;;;;;5089130;28;20028;-71
2021/05/12 09:01:14;;;;;;;1.30;0.80;;;;;;;;;;5087575;28;20055;-71
2021/05/12 09:03:41;;;;;;;1.85;0.75;;;;;;;;;;5091843;28;20430;-71
2021/05/12 09:06:08;;;;;;;1.17;0.98;;;;;;;;;;5092166;28;20443;-72
2021/05/12 09:08:34;;;;;;;2.40;0.82;;;;;;;;;;5092123;28;20494;-72
2021/05/12 09:11:00;;;;;;;0.65;0.45;;;;;;;;;;5092313;28;20036;-72
2021/05/12 09:13:33;;;;;;;0.65;0.60;;;;;;;;;;5073110;28;20024;-71
2021/05/12 09:16:17;;;;;;;0.57;0.53;;;;;;;;;;5071972;28;20040;-71
2021/05/12 09:18:44;;;;;;;0.57;0.57;;;;;;;;;;5070863;28;20029;-71
2021/05/12 09:21:10;;;;;;;1.38;0.77;;;;;;;;;;5069901;28;20032;-72
2021/05/12 09:23:40;;;;;;;0.60;0.55;;;;;;;;;;5071300;28;20076;-72
2021/05/12 09:26:15;;;;;;;1.35;0.57;;;;;;;;;;5070336;28;20491;-72
2021/05/12 09:28:42;;;;;;;2.88;0.98;;;;;;;;;;5064638;28;20032;-73
2021/05/12 09:31:15;;;;;;;2.22;0.50;;;;;;;;;;5065274;28;20562;-73
2021/05/12 09:33:48;;;;;;;2.55;0.95;;;;;;;;;;5070787;28;20043;-73
2021/05/12 09:36:30;;;;;;;1.83;0.80;;;;;;;;;;5070403;28;20032;-72
2021/05/12 09:38:56;;;;;;;1.77;0.50;;;;;;;;;;5071270;28;20645;-72
2021/05/12 09:41:32;;;;;;;3.15;1.02;;;;;;;;;;5069933;28;20467;-72
2021/05/12 09:43:59;;;;;;;1.17;0.60;;;;;;;;;;5071785;28;20025;-72
2021/05/12 09:46:26;;;;;;;0.75;0.47;;;;;;;;;;5087005;28;20028;-73
2021/05/12 09:49:01;;;;;;;2.90;0.63;;;;;;;;;;5091075;28;20050;-72
2021/05/12 09:51:28;;;;;;;1.92;0.57;;;;;;;;;;5090305;28;20052;-72
2021/05/12 09:54:04;;;;;;;0.95;0.50;;;;;;;;;;5091732;28;20028;-72
2021/05/12 09:56:37;;;;;;;2.10;1.17;;;;;;;;;;5091051;28;20032;-72
2021/05/12 09:59:08;;;;;;;4.57;0.65;;;;;;;;;;5091390;28;20031;-76
2021/05/12 10:01:44;;;;;;;1.02;0.40;;;;;;;;;;5063970;28;20032;-72
2021/05/12 10:04:42;;;;;;;2.42;0.80;;;;;;;;;;5067592;28;20032;-73
2021/05/12 10:07:16;;;;;;;0.65;0.50;;;;;;;;;;5053784;28;20033;-73
2021/05/12 10:09:43;;;;;;;4.38;1.13;;;;;;;;;;5068936;28;20578;-72
2021/05/12 10:12:17;;;;;;;1.00;1.00;;;;;;;;;;5070027;28;20108;-72
2021/05/12 10:14:44;;;;;;;1.30;0.80;;;;;;;;;;5070331;28;20111;-71
2021/05/12 10:17:12;;;;;;;0.63;0.38;;;;;;;;;;5070896;28;20523;-71
2021/05/12 10:19:39;;;;;;;2.70;0.57;;;;;;;;;;5071167;28;20029;-71
2021/05/12 10:22:05;;;;;;;0.98;0.50;;;;;;;;;;5067975;28;20020;-73
2021/05/12 10:24:33;;;;;;;1.30;0.52;;;;;;;;;;5070777;28;20020;-73
2021/05/12 10:27:00;;;;;;;1.23;0.68;;;;;;;;;;5071338;28;20371;-73
2021/05/12 10:29:27;;;;;;;2.88;0.95;;;;;;;;;;5069967;28;20043;-73
2021/05/12 10:31:53;;;;;;;0.73;0.60;;;;;;;;;;5070529;28;20063;-74
2021/05/12 10:34:20;;;;;;;4.70;0.60;;;;;;;;;;5069569;28;20467;-74
2021/05/12 10:36:46;;;;;;;1.52;0.50;;;;;;;;;;5058207;28;20020;-74
2021/05/12 10:39:13;;;;;;;0.35;0.35;;;;;;;;;;5069129;28;20032;-74
2021/05/12 10:41:43;;;;;;;0.50;0.45;;;;;;;;;;5051981;28;20108;-74
2021/05/12 10:44:19;;;;;;;1.23;0.50;;;;;;;;;;5070479;28;20028;-74
2021/05/12 10:46:49;;;;;;;3.40;0.90;;;;;;;;;;5071094;28;20016;-73
2021/05/12 10:49:23;;;;;;;1.60;0.35;;;;;;;;;;5069638;28;20041;-74
2021/05/12 10:51:49;;;;;;;0.55;0.40;;;;;;;;;;5070576;28;20060;-74
2021/05/12 10:54:35;;;;;;;0.77;0.45;;;;;;;;;;5069695;28;20031;-74
2021/05/12 10:57:01;;;;;;;0.43;0.20;;;;;;;;;;5070977;28;20257;-74
2021/05/12 10:59:27;;;;;;;0.60;0.57;;;;;;;;;;5070245;28;20035;-74
2021/05/12 11:01:55;;;;;;;0.98;0.45;;;;;;;;;;5070823;28;20012;-74
2021/05/12 11:04:25;;;;;;;2.47;1.08;;;;;;;;;;5069566;28;20487;-74
2021/05/12 11:06:52;;;;;;;1.50;0.50;;;;;;;;;;5070469;28;20031;-73
2021/05/12 11:09:19;;;;;;;2.10;0.82;;;;;;;;;;5069823;28;20044;-74
2021/05/12 11:11:45;;;;;;;0.93;0.60;;;;;;;;;;5070541;28;20028;-74
2021/05/12 11:14:20;;;;;;;1.77;1.05;;;;;;;;;;5069638;28;20560;-74
2021/05/12 11:17:05;;;;;;;1.35;0.50;;;;;;;;;;5070608;28;20116;-74
2021/05/12 11:19:55;;;;;;;0.50;0.40;;;;;;;;;;5070466;28;20043;-74
2021/05/12 11:25:13;;;;;;;0.63;0.45;;;;;;;;;;5069822;28;20040;-76
2021/05/12 11:33:25;;;;;;;0.50;0.40;;;;;;;;;;5048535;28;20090;-76
2021/05/12 11:35:56;;;;;;;1.92;0.40;;;;;;;;;;5064138;28;20074;-76
2021/05/12 11:38:22;;;;;;;0.95;0.80;;;;;;;;;;5068634;28;20032;-76
2021/05/12 11:41:08;;;;;;;0.75;0.50;;;;;;;;;;5070049;28;20029;-75
2021/05/12 11:43:46;;;;;;;0.45;0.45;;;;;;;;;;5066172;28;20546;-75
2021/05/12 11:46:23;;;;;;;0.55;0.55;;;;;;;;;;5068657;28;20028;-75
2021/05/12 11:48:50;;;;;;;2.60;1.02;;;;;;;;;;5069037;28;20083;-79
2021/05/12 11:51:27;;;;;;;0.98;0.60;;;;;;;;;;5060169;28;20196;-75
2021/05/12 11:53:54;;;;;;;0.28;0.28;;;;;;;;;;5066047;28;20406;-75
2021/05/12 11:56:21;;;;;;;0.95;0.63;;;;;;;;;;5066355;28;20086;-76
2021/05/12 11:59:05;;;;;;;1.85;0.98;;;;;;;;;;5068962;28;20033;-73
2021/05/12 12:01:37;;;;;;;0.45;0.38;;;;;;;;;;5068752;28;20352;-73
2021/05/12 12:04:39;;;;;;;2.83;0.52;;;;;;;;;;5055056;28;20462;-73
2021/05/12 12:06:56;;;;;;;2.80;0.73;;;;;;;;;;5045474;28;20506;-73
2021/05/12 12:09:22;;;;;;;2.53;0.65;;;;;;;;;;5056503;28;20107;-74
2021/05/12 12:11:49;;;;;;;1.33;0.40;;;;;;;;;;5068047;28;20060;-73
2021/05/12 12:14:15;;;;;;;0.20;0.20;;;;;;;;;;5067460;28;20503;-74
2021/05/12 12:16:42;;;;;;;0.65;0.63;;;;;;;;;;5059437;28;20099;-74
2021/05/12 12:19:15;;;;;;;0.75;0.40;;;;;;;;;;5048331;28;20394;-74
2021/05/12 12:21:42;;;;;;;1.73;0.47;;;;;;;;;;5049034;28;20053;-73
2021/05/12 12:24:13;;;;;;;1.75;0.30;;;;;;;;;;5049073;28;20037;-73
2021/05/12 12:26:41;;;;;;;1.55;0.73;;;;;;;;;;5067988;28;20138;-73
2021/05/12 12:29:08;;;;;;;0.65;0.52;;;;;;;;;;5065060;28;20020;-74
2021/05/12 12:31:54;;;;;;;0.75;0.50;;;;;;;;;;5065703;28;20051;-73
2021/05/12 12:34:22;;;;;;;1.17;0.30;;;;;;;;;;5067385;28;20048;-74
2021/05/12 12:36:49;;;;;;;0.85;0.85;;;;;;;;;;5069556;28;20036;-73
2021/05/12 12:39:15;;;;;;;2.58;0.90;;;;;;;;;;5071856;28;20032;-73
2021/05/12 12:41:42;;;;;;;0.75;0.38;;;;;;;;;;5072902;28;20059;-73
2021/05/12 12:44:08;;;;;;;0.75;0.75;;;;;;;;;;5069105;28;20401;-74
2021/05/12 12:46:34;;;;;;;1.55;0.73;;;;;;;;;;5058595;28;20040;-73
2021/05/12 12:49:00;;;;;;;1.20;0.60;;;;;;;;;;5064821;28;20048;-74
2021/05/12 12:51:33;;;;;;;0.98;0.45;;;;;;;;;;5071173;28;20048;-73
2021/05/12 12:53:59;;;;;;;1.67;0.50;;;;;;;;;;5072464;28;20459;-73
2021/05/12 12:56:25;;;;;;;0.38;0.30;;;;;;;;;;5071309;28;20036;-75
2021/05/12 12:59:11;;;;;;;2.05;1.33;;;;;;;;;;5072177;28;20040;-75
2021/05/12 13:01:37;;;;;;;1.38;0.47;;;;;;;;;;5072101;28;20032;-74
2021/05/12 13:04:20;;;;;;;1.58;0.60;;;;;;;;;;5070840;28;20028;-72
2021/05/12 13:07:04;;;;;;;2.28;0.55;;;;;;;;;;5072440;28;20031;-72
2021/05/12 13:09:30;;;;;;;1.70;0.55;;;;;;;;;;5053300;28;20037;-72
2021/05/12 13:11:58;;;;;;;0.50;0.28;;;;;;;;;;5067418;28;20040;-72
2021/05/12 13:14:24;;;;;;;0.98;0.90;;;;;;;;;;5071583;28;20082;-75
2021/05/12 13:17:01;;;;;;;1.45;0.45;;;;;;;;;;5072435;28;20032;-74
2021/05/12 13:19:27;;;;;;;0.75;0.30;;;;;;;;;;5071678;28;20043;-75
2021/05/12 13:21:54;;;;;;;0.73;0.40;;;;;;;;;;5074408;28;20025;-74
2021/05/12 13:24:21;;;;;;;0.28;0.20;;;;;;;;;;5087336;28;20100;-74
2021/05/12 13:26:55;;;;;;;0.77;0.47;;;;;;;;;;5092824;28;20039;-72
2021/05/12 13:29:21;;;;;;;0.63;0.63;;;;;;;;;;5090473;28;20024;-73
2021/05/12 13:31:50;;;;;;;0.85;0.57;;;;;;;;;;5078856;28;20040;-73
2021/05/12 13:34:18;;;;;;;0.30;0.30;;;;;;;;;;5070587;28;20483;-73
2021/05/12 13:36:46;;;;;;;0.65;0.43;;;;;;;;;;5071518;28;20074;-73
2021/05/12 13:39:14;;;;;;;2.40;0.60;;;;;;;;;;5059094;28;20392;-73
2021/05/12 13:41:40;;;;;;;1.58;0.43;;;;;;;;;;5055584;28;20021;-73
2021/05/12 13:44:06;;;;;;;3.38;0.57;;;;;;;;;;5068829;28;20067;-73
2021/05/12 13:46:32;;;;;;;0.77;0.77;;;;;;;;;;5052933;28;20463;-73
2021/05/12 13:48:59;;;;;;;1.42;0.52;;;;;;;;;;5050813;28;20041;-75
2021/05/12 13:51:29;;;;;;;2.08;0.40;;;;;;;;;;5050781;28;20056;-73
2021/05/12 13:54:11;;;;;;;3.50;1.10;;;;;;;;;;5058837;28;20024;-73
2021/05/12 13:56:56;;;;;;;3.70;0.80;;;;;;;;;;5062315;28;20062;-74
2021/05/12 13:59:45;;;;;;;1.23;0.40;;;;;;;;;;5052261;28;20025;-74
2021/05/12 14:05:13;;;;;;;0.25;0.20;;;;;;;;;;4998122;28;20039;-75
2021/05/12 14:07:40;;;;;;;0.90;0.30;;;;;;;;;;5053294;28;20090;-75
2021/05/12 14:10:07;;;;;;;4.93;0.52;;;;;;;;;;5072437;28;20457;-75
2021/05/12 14:12:38;;;;;;;4.82;1.17;;;;;;;;;;5060228;28;20035;-74
2021/05/12 14:15:25;;;;;;;1.27;0.57;;;;;;;;;;5063000;28;20077;-77
2021/05/12 14:17:51;;;;;;;1.83;0.30;;;;;;;;;;5062273;28;20033;-74
2021/05/12 14:20:17;;;;;;;1.88;0.40;;;;;;;;;;5058933;28;20124;-73
2021/05/12 14:22:43;;;;;;;0.63;0.32;;;;;;;;;;5072108;28;20036;-73
2021/05/12 14:25:12;;;;;;;2.45;0.60;;;;;;;;;;5072707;28;20463;-73
2021/05/12 14:27:38;;;;;;;2.60;0.82;;;;;;;;;;5065508;28;20446;-87
2021/05/12 14:30:05;;;;;;;1.42;0.60;;;;;;;;;;5071304;28;20051;-75
2021/05/12 14:32:31;;;;;;;1.40;0.28;;;;;;;;;;5059572;28;20040;-75
2021/05/12 14:34:57;;;;;;;2.83;0.73;;;;;;;;;;5070947;28;20032;-76
2021/05/12 14:37:24;;;;;;;0.93;0.55;;;;;;;;;;5068900;28;20028;-82
2021/05/12 14:39:50;;;;;;;0.93;0.30;;;;;;;;;;5070443;28;20034;-76
2021/05/12 14:42:16;;;;;;;1.08;0.32;;;;;;;;;;5069467;28;20682;-76
2021/05/12 14:44:43;;;;;;;3.80;0.40;;;;;;;;;;5071172;28;20024;-75
2021/05/12 14:47:09;;;;;;;0.32;0.30;;;;;;;;;;5069748;28;20027;-75
2021/05/12 14:49:37;;;;;;;0.77;0.50;;;;;;;;;;5070066;28;20403;-75
2021/05/12 14:54:35;;;;;;;4.30;1.35;;;;;;;;;;5070317;28;20040;-75
2021/05/12 15:00:09;;;;;;;3.25;0.30;;;;;;;;;;4997790;28;20181;-76
2021/05/12 15:07:41;;;;;;;1.88;0.60;;;;;;;;;;5069860;28;20059;-75
2021/05/12 15:10:07;;;;;;;3.05;0.98;;;;;;;;;;5064348;28;20047;-74